createdAt,value
2022-12-03T00:03:43.852Z,14.93
2022-12-03T00:13:47.159Z,19.13
2022-12-03T00:23:51.661Z,15.00
2022-12-03T00:33:54.840Z,14.27
2022-12-03T00:43:59.735Z,14.13
2022-12-03T00:54:02.934Z,13.97
2022-12-03T01:04:07.649Z,11.23
2022-12-03T01:14:13.549Z,10.23
2022-12-03T01:24:18.847Z,9.57
2022-12-03T01:34:21.998Z,9.60
2022-12-03T01:44:29.777Z,9.20
2022-12-03T01:54:39.991Z,9.53
2022-12-03T02:04:44.336Z,8.73
2022-12-03T02:14:48.422Z,12.93
2022-12-03T02:24:58.955Z,14.83
2022-12-03T02:35:03.328Z,10.50
2022-12-03T02:45:12.019Z,14.23
2022-12-03T02:55:19.002Z,16.00
2022-12-03T03:05:24.698Z,14.47
2022-12-03T03:15:29.160Z,16.03
2022-12-03T03:25:32.228Z,20.17
2022-12-03T03:35:39.032Z,21.33
2022-12-03T03:45:42.513Z,19.27
2022-12-03T03:55:47.384Z,18.00
2022-12-03T04:05:51.242Z,19.03
2022-12-03T04:15:55.512Z,19.23
2022-12-03T04:26:15.914Z,18.20
2022-12-03T04:36:20.333Z,16.63
2022-12-03T04:46:23.376Z,17.67
2022-12-03T04:56:27.613Z,19.07
2022-12-03T05:06:30.745Z,16.03
2022-12-03T05:16:35.338Z,16.67
2022-12-03T05:26:38.518Z,15.03
2022-12-03T05:36:42.694Z,13.93
2022-12-03T05:46:45.937Z,17.10
2022-12-03T05:56:50.425Z,16.53
2022-12-03T06:06:53.291Z,16.30
2022-12-03T06:16:57.746Z,16.33
2022-12-03T06:27:01.755Z,14.97
2022-12-03T06:37:05.907Z,14.57
2022-12-03T06:47:08.910Z,14.40
2022-12-03T06:57:13.308Z,15.10
2022-12-03T07:07:16.027Z,16.50
2022-12-03T07:17:20.709Z,15.97
2022-12-03T07:27:23.851Z,14.37
2022-12-03T07:37:28.236Z,14.03
2022-12-03T07:47:31.262Z,13.33
2022-12-03T07:57:35.839Z,14.83
2022-12-03T08:07:39.168Z,15.87
2022-12-03T08:17:44.262Z,15.13
2022-12-03T08:27:47.398Z,13.93
2022-12-03T08:37:58.755Z,14.37
2022-12-03T08:48:05.953Z,15.30
2022-12-03T08:58:22.657Z,15.73
2022-12-03T09:08:25.719Z,15.63
2022-12-03T09:18:29.971Z,16.27
2022-12-03T09:28:36.876Z,17.30
2022-12-03T09:38:46.113Z,15.30
2022-12-03T09:48:50.993Z,18.03
2022-12-03T09:58:57.183Z,15.70
2022-12-03T10:09:00.538Z,16.83
2022-12-03T10:19:04.882Z,15.37
2022-12-03T10:29:13.906Z,22.87
2022-12-03T10:39:18.354Z,20.27
2022-12-03T10:49:21.396Z,22.23
2022-12-03T10:59:27.098Z,19.70
2022-12-03T11:09:32.851Z,24.93
2022-12-03T11:19:50.730Z,25.63
2022-12-03T11:29:56.431Z,23.30
2022-12-03T11:40:39.576Z,24.80
2022-12-03T11:50:44.932Z,32.77
2022-12-03T12:00:53.955Z,33.17
2022-12-03T12:10:56.789Z,31.67
2022-12-03T12:21:33.397Z,30.50
2022-12-03T12:31:37.909Z,36.17
2022-12-03T12:41:41.719Z,32.77
2022-12-03T12:51:47.324Z,32.80
2022-12-03T13:01:52.783Z,35.13
2022-12-03T13:11:59.091Z,38.63
2022-12-03T13:22:03.844Z,37.77
2022-12-03T13:32:12.751Z,35.17
2022-12-03T13:42:38.884Z,36.93
2022-12-03T13:52:43.301Z,37.03
2022-12-03T14:02:46.414Z,38.47
2022-12-03T14:12:50.809Z,38.83
2022-12-03T14:22:58.999Z,40.70
2022-12-03T14:33:04.129Z,39.73
2022-12-03T14:43:06.947Z,42.20
2022-12-03T14:53:11.274Z,43.77
2022-12-03T15:03:14.354Z,44.03
2022-12-03T15:13:18.768Z,41.97
2022-12-03T15:23:21.887Z,43.13
2022-12-03T15:33:26.268Z,43.47
2022-12-03T15:43:29.222Z,40.60
2022-12-03T15:53:33.596Z,42.83
2022-12-03T16:03:51.948Z,40.95
2022-12-03T16:13:56.269Z,39.07
2022-12-03T16:24:00.446Z,40.60
2022-12-03T16:34:04.686Z,37.70
2022-12-03T16:44:07.508Z,38.80
2022-12-03T16:54:12.136Z,37.60
2022-12-03T17:04:14.871Z,35.13
2022-12-03T17:14:19.046Z,31.03
2022-12-03T17:24:22.510Z,31.00
2022-12-03T17:34:27.372Z,33.70
2022-12-03T17:44:30.083Z,33.57
2022-12-03T17:55:01.856Z,35.50
2022-12-03T18:04:57.175Z,35.50
2022-12-03T18:15:01.605Z,32.40
2022-12-03T18:25:05.156Z,28.17
2022-12-03T18:35:10.234Z,31.33
2022-12-03T18:45:15.126Z,24.60
2022-12-03T18:55:20.991Z,27.83
2022-12-03T19:05:24.020Z,28.90
2022-12-03T19:15:28.487Z,26.70
2022-12-03T19:25:31.801Z,26.73
2022-12-03T19:35:41.209Z,28.23
2022-12-03T19:45:45.841Z,20.70
2022-12-03T19:55:50.213Z,25.77
2022-12-03T22:43:56.648Z,32.83
2022-12-03T22:54:02.829Z,35.97
2022-12-03T23:04:06.869Z,34.57
2022-12-03T23:14:11.431Z,33.93
2022-12-03T23:24:14.597Z,33.83
2022-12-03T23:34:19.134Z,40.17
2022-12-03T23:44:22.626Z,36.80
2022-12-03T23:54:27.102Z,32.80
